Huvudsida
METAR-TAF:

METAR-TAF

Flygplatser :

Seinäjoki flygplats

Seinäjoki-Ilmola, Finland

latitud: 62-41-37N, longitud: 022-49-55E, höjd: 91 m

Aktuellt väderrapport

Denna rapport gjordes för 10 minuter sedan, klockan 09:50 UTC
Vind 9 kt från syd, varierande mellan sydost och sydväst
Temperatur 0°C
Fuktighet 80%
Tryck 1008 hPa
Sikt 10 km eller mer
Få moln på en höjd av 2000 ft
Brutna moln på en höjd av 2800 ft
Mulet på en höjd av 3600 ft
lätt regn, snö

METAR: EFSI 200950Z AUTO 17009KT 130V220 9999 -RASN FEW020 BKN028 OVC036 00/M03 Q1008

Tid: 12:00 (10:00 UTC)


TAF: saknas

Aktuella väderrapporter och prognoser från 4000 flygplatser (METAR- och TAF-rapporter).

De tillgängliga stationerna syns som gula och röda prickar på kartan.

För musen över prickarna för att se namnen på stationerna.

Klicka sedan för att få väderrapporter och prognoser.

För att ändra kartan: Klicka på de gröna knapparna med ett svart kors på för att zooma in; den gröna knappen med ett streck på för att zooma ut; eller på de gröna pilarna för angränsande kartor.


METAR-TAF: